sensor_id;sensor_type;location;lat;lon;timestamp;temperature;humidity
530;DHT22;251;48.704;9.210;2023-05-07T00:02:25;11.80;54.20
530;DHT22;251;48.704;9.210;2023-05-07T00:04:52;11.40;54.00
530;DHT22;251;48.704;9.210;2023-05-07T00:07:19;11.60;53.90
530;DHT22;251;48.704;9.210;2023-05-07T00:09:46;11.80;54.50
530;DHT22;251;48.704;9.210;2023-05-07T00:12:12;11.50;55.60
530;DHT22;251;48.704;9.210;2023-05-07T00:14:39;11.70;55.70
530;DHT22;251;48.704;9.210;2023-05-07T00:17:07;11.80;55.10
530;DHT22;251;48.704;9.210;2023-05-07T00:19:34;11.80;55.50
530;DHT22;251;48.704;9.210;2023-05-07T00:22:01;11.80;54.90
530;DHT22;251;48.704;9.210;2023-05-07T00:24:28;11.40;55.60
530;DHT22;251;48.704;9.210;2023-05-07T00:26:54;11.70;56.80
530;DHT22;251;48.704;9.210;2023-05-07T00:29:23;11.60;56.40
530;DHT22;251;48.704;9.210;2023-05-07T00:31:50;11.70;57.60
530;DHT22;251;48.704;9.210;2023-05-07T00:34:20;11.80;56.80
530;DHT22;251;48.704;9.210;2023-05-07T00:36:48;11.60;55.60
530;DHT22;251;48.704;9.210;2023-05-07T00:39:15;11.40;55.50
530;DHT22;251;48.704;9.210;2023-05-07T00:41:42;11.40;55.00
530;DHT22;251;48.704;9.210;2023-05-07T00:44:08;11.30;56.40
530;DHT22;251;48.704;9.210;2023-05-07T00:46:35;11.70;56.20
530;DHT22;251;48.704;9.210;2023-05-07T00:49:02;11.40;56.80
530;DHT22;251;48.704;9.210;2023-05-07T00:51:30;11.40;57.90
530;DHT22;251;48.704;9.210;2023-05-07T00:53:57;11.10;58.20
530;DHT22;251;48.704;9.210;2023-05-07T00:56:24;11.30;58.00
530;DHT22;251;48.704;9.210;2023-05-07T00:58:51;11.30;58.80
530;DHT22;251;48.704;9.210;2023-05-07T01:01:18;11.40;59.40
530;DHT22;251;48.704;9.210;2023-05-07T01:03:45;11.20;59.50
530;DHT22;251;48.704;9.210;2023-05-07T01:06:13;11.10;59.80
530;DHT22;251;48.704;9.210;2023-05-07T01:08:44;11.50;59.90
530;DHT22;251;48.704;9.210;2023-05-07T01:11:11;11.30;60.20
530;DHT22;251;48.704;9.210;2023-05-07T01:13:39;11.40;59.90
530;DHT22;251;48.704;9.210;2023-05-07T01:16:08;11.10;59.00
530;DHT22;251;48.704;9.210;2023-05-07T01:18:35;11.10;58.40
530;DHT22;251;48.704;9.210;2023-05-07T01:21:04;11.10;59.10
530;DHT22;251;48.704;9.210;2023-05-07T01:23:33;11.20;60.30
530;DHT22;251;48.704;9.210;2023-05-07T01:26:01;11.20;59.90
530;DHT22;251;48.704;9.210;2023-05-07T01:28:30;11.10;60.80
530;DHT22;251;48.704;9.210;2023-05-07T01:31:02;11.20;61.00
530;DHT22;251;48.704;9.210;2023-05-07T01:33:35;11.00;61.10
530;DHT22;251;48.704;9.210;2023-05-07T01:36:03;11.00;59.70
530;DHT22;251;48.704;9.210;2023-05-07T01:38:33;11.10;60.90
530;DHT22;251;48.704;9.210;2023-05-07T01:41:01;11.00;61.10
530;DHT22;251;48.704;9.210;2023-05-07T01:43:28;11.00;62.20
530;DHT22;251;48.704;9.210;2023-05-07T01:45:57;11.30;63.10
530;DHT22;251;48.704;9.210;2023-05-07T01:48:24;10.90;63.00
530;DHT22;251;48.704;9.210;2023-05-07T01:50:51;11.10;64.70
530;DHT22;251;48.704;9.210;2023-05-07T01:53:19;11.00;64.90
530;DHT22;251;48.704;9.210;2023-05-07T01:55:47;10.90;64.30
530;DHT22;251;48.704;9.210;2023-05-07T01:58:15;10.70;64.20
530;DHT22;251;48.704;9.210;2023-05-07T02:00:41;11.00;64.00
530;DHT22;251;48.704;9.210;2023-05-07T02:03:08;11.00;63.90
530;DHT22;251;48.704;9.210;2023-05-07T02:05:45;10.80;64.80
530;DHT22;251;48.704;9.210;2023-05-07T02:08:20;10.70;65.20
530;DHT22;251;48.704;9.210;2023-05-07T02:10:48;10.70;64.80
530;DHT22;251;48.704;9.210;2023-05-07T02:13:15;10.90;66.20
530;DHT22;251;48.704;9.210;2023-05-07T02:15:42;10.80;65.60
530;DHT22;251;48.704;9.210;2023-05-07T02:18:11;11.10;66.00
530;DHT22;251;48.704;9.210;2023-05-07T02:20:38;10.90;64.90
530;DHT22;251;48.704;9.210;2023-05-07T02:23:05;10.90;64.20
530;DHT22;251;48.704;9.210;2023-05-07T02:25:32;11.00;64.10
530;DHT22;251;48.704;9.210;2023-05-07T02:28:00;10.80;64.70
530;DHT22;251;48.704;9.210;2023-05-07T02:30:43;10.50;63.90
530;DHT22;251;48.704;9.210;2023-05-07T02:33:10;10.70;65.80
530;DHT22;251;48.704;9.210;2023-05-07T02:35:38;10.70;67.40
530;DHT22;251;48.704;9.210;2023-05-07T02:38:05;10.70;67.60
530;DHT22;251;48.704;9.210;2023-05-07T02:40:33;10.90;69.20
530;DHT22;251;48.704;9.210;2023-05-07T02:43:05;10.70;68.70
530;DHT22;251;48.704;9.210;2023-05-07T02:45:32;10.40;68.80
530;DHT22;251;48.704;9.210;2023-05-07T02:48:01;10.40;68.00
530;DHT22;251;48.704;9.210;2023-05-07T02:50:28;10.70;68.20
530;DHT22;251;48.704;9.210;2023-05-07T02:52:55;10.40;68.00
530;DHT22;251;48.704;9.210;2023-05-07T02:55:22;10.50;67.70
530;DHT22;251;48.704;9.210;2023-05-07T02:57:49;10.20;67.60
530;DHT22;251;48.704;9.210;2023-05-07T03:00:18;10.40;68.90
530;DHT22;251;48.704;9.210;2023-05-07T03:02:53;10.10;70.70
530;DHT22;251;48.704;9.210;2023-05-07T03:05:20;10.30;72.60
530;DHT22;251;48.704;9.210;2023-05-07T03:07:47;10.30;72.00
530;DHT22;251;48.704;9.210;2023-05-07T03:10:15;10.40;72.70
530;DHT22;251;48.704;9.210;2023-05-07T03:12:42;10.20;69.90
530;DHT22;251;48.704;9.210;2023-05-07T03:15:11;10.30;67.90
530;DHT22;251;48.704;9.210;2023-05-07T03:17:40;10.40;69.80
530;DHT22;251;48.704;9.210;2023-05-07T03:20:08;10.30;69.40
530;DHT22;251;48.704;9.210;2023-05-07T03:22:35;10.20;70.00
530;DHT22;251;48.704;9.210;2023-05-07T03:25:02;10.20;70.20
530;DHT22;251;48.704;9.210;2023-05-07T03:27:30;10.30;70.70
530;DHT22;251;48.704;9.210;2023-05-07T03:29:56;10.30;71.10
530;DHT22;251;48.704;9.210;2023-05-07T03:32:23;10.20;71.20
530;DHT22;251;48.704;9.210;2023-05-07T03:34:52;10.10;70.60
530;DHT22;251;48.704;9.210;2023-05-07T03:37:18;9.90;73.20
530;DHT22;251;48.704;9.210;2023-05-07T03:39:47;10.00;71.10
530;DHT22;251;48.704;9.210;2023-05-07T03:42:14;10.00;70.90
530;DHT22;251;48.704;9.210;2023-05-07T03:44:41;9.90;71.90
530;DHT22;251;48.704;9.210;2023-05-07T03:47:08;10.00;70.10
530;DHT22;251;48.704;9.210;2023-05-07T03:49:36;9.80;72.30
530;DHT22;251;48.704;9.210;2023-05-07T03:52:05;10.00;72.10
530;DHT22;251;48.704;9.210;2023-05-07T03:54:32;9.90;74.10
530;DHT22;251;48.704;9.210;2023-05-07T03:56:58;9.50;74.10
530;DHT22;251;48.704;9.210;2023-05-07T03:59:26;9.90;74.60
530;DHT22;251;48.704;9.210;2023-05-07T04:01:52;9.40;73.30
530;DHT22;251;48.704;9.210;2023-05-07T04:04:22;9.50;73.90
530;DHT22;251;48.704;9.210;2023-05-07T04:06:49;9.80;74.40
530;DHT22;251;48.704;9.210;2023-05-07T04:09:17;9.50;75.80
530;DHT22;251;48.704;9.210;2023-05-07T04:11:45;9.80;79.20
530;DHT22;251;48.704;9.210;2023-05-07T04:14:12;9.90;79.30
530;DHT22;251;48.704;9.210;2023-05-07T04:16:39;9.30;80.30
530;DHT22;251;48.704;9.210;2023-05-07T04:19:08;9.60;80.20
530;DHT22;251;48.704;9.210;2023-05-07T04:21:36;9.70;80.20
530;DHT22;251;48.704;9.210;2023-05-07T04:24:03;9.40;78.80
530;DHT22;251;48.704;9.210;2023-05-07T04:26:31;9.40;76.60
530;DHT22;251;48.704;9.210;2023-05-07T04:28:59;9.30;76.20
530;DHT22;251;48.704;9.210;2023-05-07T04:31:31;9.80;76.50
530;DHT22;251;48.704;9.210;2023-05-07T04:33:58;9.80;77.40
530;DHT22;251;48.704;9.210;2023-05-07T04:36:25;9.90;77.80
530;DHT22;251;48.704;9.210;2023-05-07T04:38:58;9.90;79.40
530;DHT22;251;48.704;9.210;2023-05-07T04:41:24;9.80;76.90
530;DHT22;251;48.704;9.210;2023-05-07T04:43:53;9.90;74.00
530;DHT22;251;48.704;9.210;2023-05-07T04:46:23;9.60;72.40
530;DHT22;251;48.704;9.210;2023-05-07T04:48:51;9.90;73.80
530;DHT22;251;48.704;9.210;2023-05-07T04:51:18;9.80;74.30
530;DHT22;251;48.704;9.210;2023-05-07T04:53:45;9.80;73.10
530;DHT22;251;48.704;9.210;2023-05-07T04:56:12;9.90;73.90
530;DHT22;251;48.704;9.210;2023-05-07T04:58:41;9.80;74.30
530;DHT22;251;48.704;9.210;2023-05-07T05:01:10;9.90;75.00
530;DHT22;251;48.704;9.210;2023-05-07T05:03:38;9.70;75.50
530;DHT22;251;48.704;9.210;2023-05-07T05:06:07;9.80;76.30
530;DHT22;251;48.704;9.210;2023-05-07T05:08:34;9.80;77.70
530;DHT22;251;48.704;9.210;2023-05-07T05:11:02;9.90;78.60
530;DHT22;251;48.704;9.210;2023-05-07T05:13:31;10.10;76.90
530;DHT22;251;48.704;9.210;2023-05-07T05:16:00;10.00;77.50
530;DHT22;251;48.704;9.210;2023-05-07T05:18:30;10.30;72.20
530;DHT22;251;48.704;9.210;2023-05-07T05:20:57;9.90;72.20
530;DHT22;251;48.704;9.210;2023-05-07T05:23:25;10.30;73.50
530;DHT22;251;48.704;9.210;2023-05-07T05:25:55;10.10;76.30
530;DHT22;251;48.704;9.210;2023-05-07T05:28:25;10.20;74.90
530;DHT22;251;48.704;9.210;2023-05-07T05:30:53;10.80;75.70
530;DHT22;251;48.704;9.210;2023-05-07T05:33:22;10.60;74.60
530;DHT22;251;48.704;9.210;2023-05-07T05:35:50;10.90;73.90
530;DHT22;251;48.704;9.210;2023-05-07T05:38:18;11.10;72.70
530;DHT22;251;48.704;9.210;2023-05-07T05:40:47;11.30;72.90
530;DHT22;251;48.704;9.210;2023-05-07T05:43:14;11.70;73.70
530;DHT22;251;48.704;9.210;2023-05-07T05:45:41;11.80;73.30
530;DHT22;251;48.704;9.210;2023-05-07T05:48:07;12.10;70.80
530;DHT22;251;48.704;9.210;2023-05-07T05:50:35;12.20;68.70
530;DHT22;251;48.704;9.210;2023-05-07T05:53:04;12.20;64.80
530;DHT22;251;48.704;9.210;2023-05-07T05:55:31;12.70;60.70
530;DHT22;251;48.704;9.210;2023-05-07T05:57:59;12.60;56.80
530;DHT22;251;48.704;9.210;2023-05-07T06:00:26;12.90;51.40
530;DHT22;251;48.704;9.210;2023-05-07T06:03:01;13.20;52.70
530;DHT22;251;48.704;9.210;2023-05-07T06:05:28;13.40;51.60
530;DHT22;251;48.704;9.210;2023-05-07T06:07:56;13.70;52.20
530;DHT22;251;48.704;9.210;2023-05-07T06:10:26;13.80;42.60
530;DHT22;251;48.704;9.210;2023-05-07T06:12:53;13.90;40.00
530;DHT22;251;48.704;9.210;2023-05-07T06:15:21;13.90;37.30
530;DHT22;251;48.704;9.210;2023-05-07T06:17:48;14.00;35.20
530;DHT22;251;48.704;9.210;2023-05-07T06:20:15;14.40;38.20
530;DHT22;251;48.704;9.210;2023-05-07T06:22:46;14.60;37.10
530;DHT22;251;48.704;9.210;2023-05-07T06:25:15;14.50;35.70
530;DHT22;251;48.704;9.210;2023-05-07T06:27:44;14.70;33.40
530;DHT22;251;48.704;9.210;2023-05-07T06:30:11;14.80;33.20
530;DHT22;251;48.704;9.210;2023-05-07T06:32:40;14.80;33.10
530;DHT22;251;48.704;9.210;2023-05-07T06:35:08;15.30;32.00
530;DHT22;251;48.704;9.210;2023-05-07T06:37:37;15.60;31.30
530;DHT22;251;48.704;9.210;2023-05-07T06:40:07;15.40;30.00
530;DHT22;251;48.704;9.210;2023-05-07T06:42:36;15.60;30.50
530;DHT22;251;48.704;9.210;2023-05-07T06:45:22;15.40;29.80
530;DHT22;251;48.704;9.210;2023-05-07T06:47:52;15.60;29.70
530;DHT22;251;48.704;9.210;2023-05-07T06:50:19;15.60;30.20
530;DHT22;251;48.704;9.210;2023-05-07T06:52:48;15.60;29.60
530;DHT22;251;48.704;9.210;2023-05-07T06:55:15;15.60;30.00
530;DHT22;251;48.704;9.210;2023-05-07T06:57:42;15.60;29.30
530;DHT22;251;48.704;9.210;2023-05-07T07:00:11;16.00;30.00
530;DHT22;251;48.704;9.210;2023-05-07T07:02:47;16.10;29.70
530;DHT22;251;48.704;9.210;2023-05-07T07:05:19;15.90;28.90
530;DHT22;251;48.704;9.210;2023-05-07T07:07:46;16.10;28.20
530;DHT22;251;48.704;9.210;2023-05-07T07:10:18;16.10;28.20
530;DHT22;251;48.704;9.210;2023-05-07T07:12:45;16.00;27.70
530;DHT22;251;48.704;9.210;2023-05-07T07:15:13;16.30;28.30
530;DHT22;251;48.704;9.210;2023-05-07T07:17:40;16.50;27.50
530;DHT22;251;48.704;9.210;2023-05-07T07:20:10;16.80;27.40
530;DHT22;251;48.704;9.210;2023-05-07T07:22:37;16.90;26.70
530;DHT22;251;48.704;9.210;2023-05-07T07:25:04;16.90;25.80
530;DHT22;251;48.704;9.210;2023-05-07T07:27:31;17.30;26.50
530;DHT22;251;48.704;9.210;2023-05-07T07:29:58;17.60;25.90
530;DHT22;251;48.704;9.210;2023-05-07T07:32:26;17.30;24.70
530;DHT22;251;48.704;9.210;2023-05-07T07:34:53;17.60;24.80
530;DHT22;251;48.704;9.210;2023-05-07T07:37:22;18.00;23.20
530;DHT22;251;48.704;9.210;2023-05-07T07:39:51;18.30;22.40
530;DHT22;251;48.704;9.210;2023-05-07T07:42:19;18.40;22.00
530;DHT22;251;48.704;9.210;2023-05-07T07:44:46;18.60;22.30
530;DHT22;251;48.704;9.210;2023-05-07T07:47:14;18.80;22.20
530;DHT22;251;48.704;9.210;2023-05-07T07:49:42;18.90;20.70
530;DHT22;251;48.704;9.210;2023-05-07T07:52:10;19.00;20.10
530;DHT22;251;48.704;9.210;2023-05-07T07:54:39;19.10;21.00
530;DHT22;251;48.704;9.210;2023-05-07T07:57:07;19.30;19.20
530;DHT22;251;48.704;9.210;2023-05-07T07:59:34;19.50;19.00
530;DHT22;251;48.704;9.210;2023-05-07T08:02:01;19.60;19.20
530;DHT22;251;48.704;9.210;2023-05-07T08:04:29;19.80;18.70
530;DHT22;251;48.704;9.210;2023-05-07T08:07:01;20.00;19.70
530;DHT22;251;48.704;9.210;2023-05-07T08:09:30;20.10;18.60
530;DHT22;251;48.704;9.210;2023-05-07T08:12:00;20.10;17.60
530;DHT22;251;48.704;9.210;2023-05-07T08:14:31;20.30;17.90
530;DHT22;251;48.704;9.210;2023-05-07T08:16:58;20.40;17.50
530;DHT22;251;48.704;9.210;2023-05-07T08:19:25;20.50;17.50
530;DHT22;251;48.704;9.210;2023-05-07T08:21:52;20.50;16.60
530;DHT22;251;48.704;9.210;2023-05-07T08:24:21;20.60;16.90
530;DHT22;251;48.704;9.210;2023-05-07T08:26:48;20.70;16.30
530;DHT22;251;48.704;9.210;2023-05-07T08:29:16;20.80;15.70
530;DHT22;251;48.704;9.210;2023-05-07T08:31:43;20.90;15.80
530;DHT22;251;48.704;9.210;2023-05-07T08:34:10;21.10;15.40
530;DHT22;251;48.704;9.210;2023-05-07T08:36:41;21.20;15.70
530;DHT22;251;48.704;9.210;2023-05-07T08:39:08;21.30;15.40
530;DHT22;251;48.704;9.210;2023-05-07T08:41:36;21.50;15.40
530;DHT22;251;48.704;9.210;2023-05-07T08:44:06;21.50;15.50
530;DHT22;251;48.704;9.210;2023-05-07T08:46:36;21.50;15.70
530;DHT22;251;48.704;9.210;2023-05-07T08:49:03;21.60;14.50
530;DHT22;251;48.704;9.210;2023-05-07T08:51:30;21.60;13.20
530;DHT22;251;48.704;9.210;2023-05-07T08:53:58;21.60;14.50
530;DHT22;251;48.704;9.210;2023-05-07T08:56:30;21.70;14.60
530;DHT22;251;48.704;9.210;2023-05-07T08:58:58;21.80;14.60
530;DHT22;251;48.704;9.210;2023-05-07T09:01:26;21.90;13.70
530;DHT22;251;48.704;9.210;2023-05-07T09:03:56;22.10;14.00
530;DHT22;251;48.704;9.210;2023-05-07T09:06:25;22.30;14.70
530;DHT22;251;48.704;9.210;2023-05-07T09:08:54;22.30;12.50
530;DHT22;251;48.704;9.210;2023-05-07T09:11:24;22.50;13.50
530;DHT22;251;48.704;9.210;2023-05-07T09:13:54;22.70;13.10
530;DHT22;251;48.704;9.210;2023-05-07T09:16:22;22.90;12.30
530;DHT22;251;48.704;9.210;2023-05-07T09:18:51;22.90;11.80
530;DHT22;251;48.704;9.210;2023-05-07T09:21:21;23.10;11.60
530;DHT22;251;48.704;9.210;2023-05-07T09:23:50;23.20;10.40
530;DHT22;251;48.704;9.210;2023-05-07T09:26:21;23.20;10.70
530;DHT22;251;48.704;9.210;2023-05-07T09:28:48;23.40;11.20
530;DHT22;251;48.704;9.210;2023-05-07T09:31:16;23.60;9.90
530;DHT22;251;48.704;9.210;2023-05-07T09:33:43;23.70;9.50
530;DHT22;251;48.704;9.210;2023-05-07T09:36:12;23.90;10.20
530;DHT22;251;48.704;9.210;2023-05-07T09:38:41;23.80;8.70
530;DHT22;251;48.704;9.210;2023-05-07T09:41:11;24.00;9.20
530;DHT22;251;48.704;9.210;2023-05-07T09:43:55;24.10;9.00
530;DHT22;251;48.704;9.210;2023-05-07T09:46:30;24.20;8.90
530;DHT22;251;48.704;9.210;2023-05-07T09:49:02;24.40;8.40
530;DHT22;251;48.704;9.210;2023-05-07T09:51:39;24.60;7.20
530;DHT22;251;48.704;9.210;2023-05-07T09:54:10;24.80;8.00
530;DHT22;251;48.704;9.210;2023-05-07T09:56:39;25.00;7.50
530;DHT22;251;48.704;9.210;2023-05-07T09:59:10;25.10;6.40
530;DHT22;251;48.704;9.210;2023-05-07T10:01:41;25.30;6.70
530;DHT22;251;48.704;9.210;2023-05-07T10:04:09;25.60;5.70
530;DHT22;251;48.704;9.210;2023-05-07T10:06:37;25.70;5.80
530;DHT22;251;48.704;9.210;2023-05-07T10:09:05;25.90;5.00
530;DHT22;251;48.704;9.210;2023-05-07T10:11:34;26.10;3.90
530;DHT22;251;48.704;9.210;2023-05-07T10:14:05;26.30;4.20
530;DHT22;251;48.704;9.210;2023-05-07T10:16:33;26.50;3.00
530;DHT22;251;48.704;9.210;2023-05-07T10:19:06;26.50;2.10
530;DHT22;251;48.704;9.210;2023-05-07T10:21:36;26.40;1.30
530;DHT22;251;48.704;9.210;2023-05-07T10:24:05;26.70;1.20
530;DHT22;251;48.704;9.210;2023-05-07T10:26:42;27.00;1.40
530;DHT22;251;48.704;9.210;2023-05-07T10:29:14;27.10;1.00
530;DHT22;251;48.704;9.210;2023-05-07T10:31:55;27.40;1.00
530;DHT22;251;48.704;9.210;2023-05-07T10:34:27;27.40;1.00
530;DHT22;251;48.704;9.210;2023-05-07T10:36:57;27.70;1.00
530;DHT22;251;48.704;9.210;2023-05-07T10:39:24;28.40;1.00
530;DHT22;251;48.704;9.210;2023-05-07T10:41:52;28.80;1.00
530;DHT22;251;48.704;9.210;2023-05-07T10:44:26;29.10;1.00
530;DHT22;251;48.704;9.210;2023-05-07T10:47:05;29.50;1.00
530;DHT22;251;48.704;9.210;2023-05-07T10:49:35;30.00;1.00
530;DHT22;251;48.704;9.210;2023-05-07T10:52:13;30.50;1.00
530;DHT22;251;48.704;9.210;2023-05-07T10:54:45;30.70;1.00
530;DHT22;251;48.704;9.210;2023-05-07T10:57:34;31.20;1.00
530;DHT22;251;48.704;9.210;2023-05-07T11:00:42;31.80;1.00
530;DHT22;251;48.704;9.210;2023-05-07T11:03:17;32.20;1.00
530;DHT22;251;48.704;9.210;2023-05-07T11:06:09;32.30;1.00
530;DHT22;251;48.704;9.210;2023-05-07T11:08:53;32.10;1.00
530;DHT22;251;48.704;9.210;2023-05-07T11:11:46;32.50;1.00
530;DHT22;251;48.704;9.210;2023-05-07T11:14:46;32.80;1.00
530;DHT22;251;48.704;9.210;2023-05-07T11:17:18;32.90;1.00
530;DHT22;251;48.704;9.210;2023-05-07T11:19:52;32.70;1.00
530;DHT22;251;48.704;9.210;2023-05-07T11:22:42;32.70;1.00
530;DHT22;251;48.704;9.210;2023-05-07T11:25:18;32.90;1.00
530;DHT22;251;48.704;9.210;2023-05-07T11:27:48;33.10;1.00
530;DHT22;251;48.704;9.210;2023-05-07T11:30:18;33.30;1.00
530;DHT22;251;48.704;9.210;2023-05-07T11:32:48;33.50;1.00
530;DHT22;251;48.704;9.210;2023-05-07T11:35:17;33.50;1.00
530;DHT22;251;48.704;9.210;2023-05-07T11:37:47;33.50;1.00
530;DHT22;251;48.704;9.210;2023-05-07T11:40:15;33.00;1.00
530;DHT22;251;48.704;9.210;2023-05-07T11:42:42;32.60;1.00
530;DHT22;251;48.704;9.210;2023-05-07T11:45:09;32.00;1.00
530;DHT22;251;48.704;9.210;2023-05-07T11:47:38;31.70;1.00
530;DHT22;251;48.704;9.210;2023-05-07T11:50:08;31.40;1.00
530;DHT22;251;48.704;9.210;2023-05-07T11:52:36;30.90;1.00
530;DHT22;251;48.704;9.210;2023-05-07T11:55:05;30.40;1.00
530;DHT22;251;48.704;9.210;2023-05-07T11:57:33;30.00;1.00
530;DHT22;251;48.704;9.210;2023-05-07T12:00:01;29.50;1.00
530;DHT22;251;48.704;9.210;2023-05-07T12:02:39;29.00;1.00
530;DHT22;251;48.704;9.210;2023-05-07T12:05:07;28.70;1.00
530;DHT22;251;48.704;9.210;2023-05-07T12:07:34;28.50;1.00
530;DHT22;251;48.704;9.210;2023-05-07T12:10:04;28.10;1.00
530;DHT22;251;48.704;9.210;2023-05-07T12:12:38;28.00;1.00
530;DHT22;251;48.704;9.210;2023-05-07T12:15:05;27.70;1.00
530;DHT22;251;48.704;9.210;2023-05-07T12:17:32;27.30;1.00
530;DHT22;251;48.704;9.210;2023-05-07T12:20:01;27.00;1.00
530;DHT22;251;48.704;9.210;2023-05-07T12:22:28;26.80;1.00
530;DHT22;251;48.704;9.210;2023-05-07T12:24:57;26.40;1.00
530;DHT22;251;48.704;9.210;2023-05-07T12:27:26;26.10;2.50
530;DHT22;251;48.704;9.210;2023-05-07T12:29:53;25.20;2.90
530;DHT22;251;48.704;9.210;2023-05-07T12:32:20;24.70;5.30
530;DHT22;251;48.704;9.210;2023-05-07T12:34:50;24.00;6.70
530;DHT22;251;48.704;9.210;2023-05-07T12:37:24;23.60;7.80
530;DHT22;251;48.704;9.210;2023-05-07T12:40:04;23.30;7.70
530;DHT22;251;48.704;9.210;2023-05-07T12:42:34;23.20;7.60
530;DHT22;251;48.704;9.210;2023-05-07T12:45:08;22.90;7.80
530;DHT22;251;48.704;9.210;2023-05-07T12:47:35;22.60;8.10
530;DHT22;251;48.704;9.210;2023-05-07T12:50:05;22.30;8.90
530;DHT22;251;48.704;9.210;2023-05-07T12:52:34;22.00;9.70
530;DHT22;251;48.704;9.210;2023-05-07T12:55:06;21.50;10.40
530;DHT22;251;48.704;9.210;2023-05-07T12:57:38;20.90;12.90
530;DHT22;251;48.704;9.210;2023-05-07T13:00:06;20.20;13.20
530;DHT22;251;48.704;9.210;2023-05-07T13:02:34;19.60;14.30
530;DHT22;251;48.704;9.210;2023-05-07T13:05:04;19.00;17.80
530;DHT22;251;48.704;9.210;2023-05-07T13:07:31;18.70;19.40
530;DHT22;251;48.704;9.210;2023-05-07T13:09:59;18.30;21.80
530;DHT22;251;48.704;9.210;2023-05-07T13:12:25;18.00;23.80
530;DHT22;251;48.704;9.210;2023-05-07T13:14:52;17.70;23.30
530;DHT22;251;48.704;9.210;2023-05-07T13:17:19;17.50;24.10
530;DHT22;251;48.704;9.210;2023-05-07T13:19:46;17.40;26.40
530;DHT22;251;48.704;9.210;2023-05-07T13:22:13;17.20;28.60
530;DHT22;251;48.704;9.210;2023-05-07T13:24:39;17.10;27.80
530;DHT22;251;48.704;9.210;2023-05-07T13:27:10;16.90;27.60
530;DHT22;251;48.704;9.210;2023-05-07T13:29:37;16.60;31.70
530;DHT22;251;48.704;9.210;2023-05-07T13:32:04;16.40;32.40
530;DHT22;251;48.704;9.210;2023-05-07T13:34:30;16.10;36.90
530;DHT22;251;48.704;9.210;2023-05-07T13:36:57;16.30;35.80
530;DHT22;251;48.704;9.210;2023-05-07T13:39:24;16.10;34.80
530;DHT22;251;48.704;9.210;2023-05-07T13:41:51;16.10;35.10
530;DHT22;251;48.704;9.210;2023-05-07T13:44:19;16.20;38.40
530;DHT22;251;48.704;9.210;2023-05-07T13:46:46;16.20;38.70
530;DHT22;251;48.704;9.210;2023-05-07T13:49:13;16.10;37.70
530;DHT22;251;48.704;9.210;2023-05-07T13:51:40;16.20;39.30
530;DHT22;251;48.704;9.210;2023-05-07T13:54:07;16.00;38.20
530;DHT22;251;48.704;9.210;2023-05-07T13:56:33;16.00;46.30
530;DHT22;251;48.704;9.210;2023-05-07T13:59:01;15.80;45.70
530;DHT22;251;48.704;9.210;2023-05-07T14:01:29;15.80;54.20
530;DHT22;251;48.704;9.210;2023-05-07T14:03:56;15.60;54.20
530;DHT22;251;48.704;9.210;2023-05-07T14:06:23;15.50;59.30
530;DHT22;251;48.704;9.210;2023-05-07T14:08:50;15.50;54.50
530;DHT22;251;48.704;9.210;2023-05-07T14:11:17;15.50;57.70
530;DHT22;251;48.704;9.210;2023-05-07T14:13:44;15.30;65.30
530;DHT22;251;48.704;9.210;2023-05-07T14:16:11;15.50;67.20
530;DHT22;251;48.704;9.210;2023-05-07T14:18:39;15.40;65.50
530;DHT22;251;48.704;9.210;2023-05-07T14:21:06;15.30;69.30
530;DHT22;251;48.704;9.210;2023-05-07T14:23:33;15.70;72.90
530;DHT22;251;48.704;9.210;2023-05-07T14:25:59;15.50;71.00
530;DHT22;251;48.704;9.210;2023-05-07T14:28:26;15.40;68.80
530;DHT22;251;48.704;9.210;2023-05-07T14:30:53;15.40;73.50
530;DHT22;251;48.704;9.210;2023-05-07T14:33:20;15.70;78.60
530;DHT22;251;48.704;9.210;2023-05-07T14:35:48;15.50;82.20
530;DHT22;251;48.704;9.210;2023-05-07T14:38:15;15.70;82.10
530;DHT22;251;48.704;9.210;2023-05-07T14:40:42;15.80;91.30
530;DHT22;251;48.704;9.210;2023-05-07T14:43:09;15.30;93.80
530;DHT22;251;48.704;9.210;2023-05-07T14:45:36;15.90;95.20
530;DHT22;251;48.704;9.210;2023-05-07T14:48:03;15.70;92.10
530;DHT22;251;48.704;9.210;2023-05-07T14:50:30;15.70;93.60
530;DHT22;251;48.704;9.210;2023-05-07T14:52:58;15.70;93.10
530;DHT22;251;48.704;9.210;2023-05-07T14:55:25;16.00;97.70
530;DHT22;251;48.704;9.210;2023-05-07T14:57:51;15.90;91.50
530;DHT22;251;48.704;9.210;2023-05-07T15:00:19;16.10;91.30
530;DHT22;251;48.704;9.210;2023-05-07T15:02:45;16.10;97.70
530;DHT22;251;48.704;9.210;2023-05-07T15:05:12;16.10;95.10
530;DHT22;251;48.704;9.210;2023-05-07T15:07:40;16.20;94.70
530;DHT22;251;48.704;9.210;2023-05-07T15:10:08;16.50;94.40
530;DHT22;251;48.704;9.210;2023-05-07T15:12:36;16.40;92.70
530;DHT22;251;48.704;9.210;2023-05-07T15:15:03;16.30;93.80
530;DHT22;251;48.704;9.210;2023-05-07T15:17:30;16.60;91.30
530;DHT22;251;48.704;9.210;2023-05-07T15:19:57;16.60;83.90
530;DHT22;251;48.704;9.210;2023-05-07T15:22:24;16.70;80.80
530;DHT22;251;48.704;9.210;2023-05-07T15:24:51;16.80;72.50
530;DHT22;251;48.704;9.210;2023-05-07T15:27:19;16.90;75.10
530;DHT22;251;48.704;9.210;2023-05-07T15:29:45;17.00;71.70
530;DHT22;251;48.704;9.210;2023-05-07T15:32:13;17.00;62.50
530;DHT22;251;48.704;9.210;2023-05-07T15:34:40;16.90;60.30
530;DHT22;251;48.704;9.210;2023-05-07T15:37:07;16.90;65.60
530;DHT22;251;48.704;9.210;2023-05-07T15:39:34;17.10;69.00
530;DHT22;251;48.704;9.210;2023-05-07T15:42:01;17.00;66.10
530;DHT22;251;48.704;9.210;2023-05-07T15:44:29;17.10;66.10
530;DHT22;251;48.704;9.210;2023-05-07T15:46:58;17.10;61.30
530;DHT22;251;48.704;9.210;2023-05-07T15:49:25;17.20;63.30
530;DHT22;251;48.704;9.210;2023-05-07T15:51:52;17.30;62.50
530;DHT22;251;48.704;9.210;2023-05-07T15:54:20;17.60;66.20
530;DHT22;251;48.704;9.210;2023-05-07T15:56:48;17.30;66.60
530;DHT22;251;48.704;9.210;2023-05-07T15:59:16;17.40;70.40
530;DHT22;251;48.704;9.210;2023-05-07T16:01:44;17.30;65.50
530;DHT22;251;48.704;9.210;2023-05-07T16:04:11;17.40;64.20
530;DHT22;251;48.704;9.210;2023-05-07T16:06:37;17.40;62.40
530;DHT22;251;48.704;9.210;2023-05-07T16:09:04;17.30;62.70
530;DHT22;251;48.704;9.210;2023-05-07T16:11:33;17.40;61.20
530;DHT22;251;48.704;9.210;2023-05-07T16:14:00;17.30;60.50
530;DHT22;251;48.704;9.210;2023-05-07T16:16:27;17.10;62.80
530;DHT22;251;48.704;9.210;2023-05-07T16:18:56;17.10;65.30
530;DHT22;251;48.704;9.210;2023-05-07T16:21:22;17.20;64.60
530;DHT22;251;48.704;9.210;2023-05-07T16:23:49;17.20;55.70
530;DHT22;251;48.704;9.210;2023-05-07T16:26:16;17.20;56.90
530;DHT22;251;48.704;9.210;2023-05-07T16:28:44;17.10;57.90
530;DHT22;251;48.704;9.210;2023-05-07T16:31:10;17.10;61.10
530;DHT22;251;48.704;9.210;2023-05-07T16:33:37;17.10;58.60
530;DHT22;251;48.704;9.210;2023-05-07T16:36:06;17.10;58.30
530;DHT22;251;48.704;9.210;2023-05-07T16:38:33;17.10;56.60
530;DHT22;251;48.704;9.210;2023-05-07T16:41:00;17.00;57.70
530;DHT22;251;48.704;9.210;2023-05-07T16:43:26;17.00;54.80
530;DHT22;251;48.704;9.210;2023-05-07T16:45:53;17.00;54.90
530;DHT22;251;48.704;9.210;2023-05-07T16:48:20;16.90;54.00
530;DHT22;251;48.704;9.210;2023-05-07T16:50:47;17.00;55.60